Time;durP1;ratioP1;P1;durP2;ratioP2;P2;SDS_P1;SDS_P2;PMS_P1;PMS_P2;Temp;Humidity;BMP_temperature;BMP_pressure;BME280_temperature;BME280_humidity;BME280_pressure;Samples;Min_cycle;Max_cycle;Signal;HPM_P1;HPM_P2
2023/08/13 00:00:07;;;;;;;4.50;4.15;;;;;;;19.92;62.65;95308.34;5057454;28;20204;-69
2023/08/13 00:02:37;;;;;;;4.10;3.80;;;;;;;19.92;63.02;95303.56;5075041;28;20220;-69
2023/08/13 00:05:05;;;;;;;3.92;3.63;;;;;;;19.93;62.53;95304.34;5057093;28;20193;-69
2023/08/13 00:07:33;;;;;;;4.03;3.63;;;;;;;19.94;63.27;95294.75;5071143;28;20295;-70
2023/08/13 00:10:00;;;;;;;4.78;4.00;;;;;;;19.93;62.94;95305.16;5057089;28;20282;-70
2023/08/13 00:12:27;;;;;;;4.35;3.95;;;;;;;19.90;63.30;95294.78;5057634;28;20323;-70
2023/08/13 00:14:54;;;;;;;3.78;3.47;;;;;;;19.88;63.36;95302.78;5074825;28;20207;-70
2023/08/13 00:17:23;;;;;;;3.70;3.40;;;;;;;19.82;63.62;95307.19;5074813;28;20287;-69
2023/08/13 00:19:53;;;;;;;3.45;3.22;;;;;;;19.70;63.39;95308.44;5074796;28;20197;-69
2023/08/13 00:22:22;;;;;;;4.10;3.80;;;;;;;19.63;63.76;95305.69;5057685;28;20259;-69
2023/08/13 00:24:51;;;;;;;4.03;3.72;;;;;;;19.60;63.88;95308.47;5075209;28;20200;-69
2023/08/13 00:27:19;;;;;;;3.65;3.35;;;;;;;19.60;63.98;95311.25;5057091;28;20207;-69
2023/08/13 00:29:47;;;;;;;3.67;3.47;;;;;;;19.59;64.48;95304.88;5074292;28;20205;-69
2023/08/13 00:32:15;;;;;;;4.32;4.03;;;;;;;19.59;63.93;95312.47;5057399;28;20201;-69
2023/08/13 00:34:41;;;;;;;3.88;3.58;;;;;;;19.54;63.62;95310.91;5074882;28;20185;-70
2023/08/13 00:37:12;;;;;;;3.90;3.60;;;;;;;19.49;63.71;95312.09;5074300;28;20298;-70
2023/08/13 00:39:39;;;;;;;4.43;4.10;;;;;;;19.45;63.98;95314.09;5074269;28;20204;-69
2023/08/13 00:42:06;;;;;;;3.83;3.50;;;;;;;19.42;64.01;95308.53;5056960;28;20212;-69
2023/08/13 00:44:34;;;;;;;3.78;3.58;;;;;;;19.44;64.32;95315.31;5074802;28;20266;-69
2023/08/13 00:47:02;;;;;;;4.28;3.90;;;;;;;19.45;63.88;95318.91;5074307;28;20188;-69
2023/08/13 00:49:30;;;;;;;3.92;3.63;;;;;;;19.42;63.95;95308.53;5074218;28;20197;-69
2023/08/13 00:51:58;;;;;;;4.18;3.83;;;;;;;19.41;64.38;95312.53;5056651;28;20220;-69
2023/08/13 00:54:28;;;;;;;4.13;3.83;;;;;;;19.39;64.55;95317.72;5040368;28;20193;-69
2023/08/13 00:56:55;;;;;;;3.88;3.58;;;;;;;19.35;64.28;95311.34;5074605;28;20212;-69
2023/08/13 00:59:26;;;;;;;3.70;3.40;;;;;;;19.31;64.75;95316.16;5057025;28;20255;-69
2023/08/13 01:01:54;;;;;;;4.05;3.75;;;;;;;19.24;64.61;95309.41;5074125;28;20292;-69
2023/08/13 01:04:23;;;;;;;4.20;3.33;;;;;;;19.20;64.67;95310.59;5073531;28;20235;-69
2023/08/13 01:06:59;;;;;;;3.65;3.35;;;;;;;19.18;64.75;95311.00;5059839;28;20537;-69
2023/08/13 01:09:38;;;;;;;3.97;3.58;;;;;;;19.17;65.28;95308.59;5077826;28;20205;-69
2023/08/13 01:12:10;;;;;;;4.00;3.42;;;;;;;19.13;65.33;95307.81;5060275;28;20231;-70
2023/08/13 01:14:42;;;;;;;3.65;3.33;;;;;;;19.08;65.20;95314.59;5060518;28;20193;-69
2023/08/13 01:17:12;;;;;;;3.60;3.20;;;;;;;19.06;65.22;95300.22;5077943;28;20201;-69
2023/08/13 01:19:39;;;;;;;3.50;3.30;;;;;;;19.07;65.56;95313.03;5077673;28;20197;-69
2023/08/13 01:22:09;;;;;;;3.45;3.25;;;;;;;19.08;65.10;95303.44;5077928;28;20189;-69
2023/08/13 01:24:38;;;;;;;3.65;3.33;;;;;;;19.06;64.10;95296.63;5077341;28;20275;-69
2023/08/13 01:27:13;;;;;;;3.22;3.03;;;;;;;19.06;63.64;95291.03;5077336;28;20185;-69
2023/08/13 01:29:48;;;;;;;3.97;3.65;;;;;;;19.03;63.93;95295.47;5077124;28;20640;-69
2023/08/13 01:32:16;;;;;;;3.90;3.60;;;;;;;19.03;64.71;95298.25;5060113;28;20192;-69
2023/08/13 01:34:44;;;;;;;3.67;3.33;;;;;;;19.02;64.87;95302.22;5077587;28;20204;-69
2023/08/13 01:37:14;;;;;;;3.80;3.50;;;;;;;18.95;65.43;95300.28;5077227;28;20672;-69
2023/08/13 01:39:49;;;;;;;5.03;3.85;;;;;;;18.89;65.35;95306.66;5076965;28;20181;-69
2023/08/13 01:42:16;;;;;;;4.57;3.70;;;;;;;18.76;64.86;95307.06;5077147;28;20208;-69
2023/08/13 01:44:44;;;;;;;4.25;3.40;;;;;;;18.70;64.99;95308.63;5077031;28;20193;-70
2023/08/13 01:47:12;;;;;;;3.67;3.38;;;;;;;18.66;64.84;95307.03;5077256;28;20182;-70
2023/08/13 01:49:40;;;;;;;3.80;3.50;;;;;;;18.64;65.46;95306.63;5076674;28;20209;-69
2023/08/13 01:52:07;;;;;;;3.53;3.22;;;;;;;18.59;65.80;95316.22;5077030;28;20574;-69
2023/08/13 01:54:35;;;;;;;3.85;3.42;;;;;;;18.56;65.86;95307.84;5077044;28;20255;-69
2023/08/13 01:57:06;;;;;;;3.50;3.20;;;;;;;18.54;65.96;95308.22;5077045;28;20186;-69
2023/08/13 01:59:32;;;;;;;3.88;3.58;;;;;;;18.50;65.69;95308.22;5059345;28;20205;-69
2023/08/13 02:01:59;;;;;;;3.63;3.33;;;;;;;18.45;66.07;95310.63;5059126;28;20197;-69
2023/08/13 02:04:27;;;;;;;3.63;3.38;;;;;;;18.41;66.10;95301.44;5059577;28;20208;-69
2023/08/13 02:06:57;;;;;;;4.10;3.60;;;;;;;18.38;66.02;95308.63;5077266;28;20193;-69
2023/08/13 02:09:25;;;;;;;4.40;3.53;;;;;;;18.40;65.79;95305.44;5075995;28;20288;-69
2023/08/13 02:11:53;;;;;;;3.88;3.47;;;;;;;18.34;65.92;95304.22;5076821;28;20181;-69
2023/08/13 02:14:22;;;;;;;4.05;3.05;;;;;;;18.26;66.18;95306.19;5076573;28;20511;-70
2023/08/13 02:16:50;;;;;;;4.10;3.70;;;;;;;18.25;66.40;95311.00;5076362;28;20186;-70
2023/08/13 02:19:19;;;;;;;3.75;3.45;;;;;;;18.14;66.37;95310.19;5076297;28;20193;-70
2023/08/13 02:21:47;;;;;;;3.90;3.60;;;;;;;18.11;66.62;95308.16;5076498;28;20173;-70
2023/08/13 02:24:16;;;;;;;3.78;3.38;;;;;;;18.10;66.63;95300.22;5075852;28;20197;-70
2023/08/13 02:26:43;;;;;;;4.75;3.60;;;;;;;18.06;66.63;95305.78;5076597;28;20200;-70
2023/08/13 02:29:11;;;;;;;3.58;3.33;;;;;;;18.00;66.79;95302.56;5075465;28;20201;-69
2023/08/13 02:31:39;;;;;;;3.42;3.22;;;;;;;18.00;67.09;95308.16;5076215;28;20213;-69
2023/08/13 02:34:07;;;;;;;3.70;3.40;;;;;;;18.04;67.40;95306.16;5058729;28;20197;-69
2023/08/13 02:36:35;;;;;;;4.00;3.70;;;;;;;18.06;66.99;95307.78;5055237;28;20248;-69
2023/08/13 02:39:04;;;;;;;3.72;3.42;;;;;;;17.94;66.98;95309.75;5055494;28;20216;-69
2023/08/13 02:41:33;;;;;;;3.78;3.40;;;;;;;17.83;66.97;95316.47;5056157;28;20519;-69
2023/08/13 02:44:01;;;;;;;4.70;3.50;;;;;;;17.82;67.37;95312.88;5056162;28;20269;-69
2023/08/13 02:46:29;;;;;;;3.60;3.30;;;;;;;17.80;67.21;95316.09;5055756;28;20217;-69
2023/08/13 02:48:59;;;;;;;3.97;3.30;;;;;;;17.80;67.22;95315.28;5055208;28;20201;-69
2023/08/13 02:51:27;;;;;;;3.97;3.50;;;;;;;17.80;67.36;95318.06;5055965;28;20208;-69
2023/08/13 02:53:55;;;;;;;4.25;3.25;;;;;;;17.79;67.31;95320.06;5055027;28;20267;-69
2023/08/13 02:56:23;;;;;;;3.60;3.30;;;;;;;17.80;67.38;95326.44;5055583;28;20186;-69
2023/08/13 02:58:53;;;;;;;3.60;3.35;;;;;;;17.72;67.11;95331.16;5055147;28;20251;-69
2023/08/13 03:01:24;;;;;;;3.97;3.67;;;;;;;17.61;67.32;95321.13;5055574;28;20185;-69
2023/08/13 03:03:52;;;;;;;3.55;3.15;;;;;;;17.63;67.62;95319.56;5056058;28;20194;-69
2023/08/13 03:06:24;;;;;;;3.97;3.20;;;;;;;17.56;67.41;95323.13;5055379;28;20231;-69
2023/08/13 03:08:53;;;;;;;3.58;3.30;;;;;;;17.58;67.75;95321.94;5055985;28;20193;-69
2023/08/13 03:11:21;;;;;;;3.75;3.45;;;;;;;17.56;67.71;95322.31;5055554;28;20206;-69
2023/08/13 03:13:49;;;;;;;3.78;3.47;;;;;;;17.52;68.02;95327.09;5055528;28;20213;-69
2023/08/13 03:16:20;;;;;;;3.65;3.33;;;;;;;17.53;67.37;95323.91;5055349;28;20174;-69
2023/08/13 03:18:50;;;;;;;3.70;3.40;;;;;;;17.52;67.62;95325.09;5055203;28;20200;-69
2023/08/13 03:21:19;;;;;;;3.90;3.60;;;;;;;17.50;67.81;95319.13;5054465;28;20201;-69
2023/08/13 03:23:47;;;;;;;3.90;3.55;;;;;;;17.52;68.20;95327.09;5054255;28;20201;-69
2023/08/13 03:26:15;;;;;;;3.65;3.35;;;;;;;17.54;67.46;95324.72;5054538;28;20196;-69
2023/08/13 03:28:43;;;;;;;3.40;3.20;;;;;;;17.56;66.88;95323.13;5054445;28;20201;-69
2023/08/13 03:31:12;;;;;;;3.70;3.40;;;;;;;17.56;66.97;95322.31;5054545;28;20221;-69
2023/08/13 03:33:40;;;;;;;3.70;3.40;;;;;;;17.53;67.02;95321.09;5054270;28;20198;-69
2023/08/13 03:36:08;;;;;;;3.88;3.58;;;;;;;17.51;67.38;95326.31;5054258;28;20268;-69
2023/08/13 03:38:35;;;;;;;3.78;3.40;;;;;;;17.49;67.51;95313.94;5054642;28;20214;-69
2023/08/13 03:41:09;;;;;;;3.88;3.40;;;;;;;17.43;67.66;95321.06;5055201;28;20247;-69
2023/08/13 03:43:36;;;;;;;4.30;3.70;;;;;;;17.32;67.42;95318.25;5054813;28;20189;-70
2023/08/13 03:46:05;;;;;;;3.88;3.50;;;;;;;17.26;68.13;95320.59;5054173;28;20205;-70
2023/08/13 03:48:33;;;;;;;4.00;3.42;;;;;;;17.24;67.97;95317.38;5054784;28;20182;-70
2023/08/13 03:51:03;;;;;;;3.80;3.50;;;;;;;17.22;67.85;95325.34;5055115;28;20226;-69
2023/08/13 03:53:31;;;;;;;4.85;3.60;;;;;;;17.09;68.17;95326.84;5055119;28;20239;-70
2023/08/13 03:55:58;;;;;;;4.68;3.53;;;;;;;17.11;68.22;95318.91;5055093;28;20198;-69
2023/08/13 03:58:30;;;;;;;3.85;3.55;;;;;;;17.17;68.22;95331.28;5054783;28;20619;-70
2023/08/13 04:01:04;;;;;;;3.60;3.35;;;;;;;17.13;68.13;95335.25;5054093;28;20232;-70
2023/08/13 04:03:31;;;;;;;3.88;3.58;;;;;;;17.16;68.11;95326.91;5054839;28;20204;-69
2023/08/13 04:05:59;;;;;;;4.32;3.33;;;;;;;17.18;68.21;95329.31;5053944;28;20209;-70
2023/08/13 04:08:27;;;;;;;3.90;3.50;;;;;;;17.18;67.77;95329.31;5055296;28;20280;-70
2023/08/13 04:10:55;;;;;;;3.70;3.35;;;;;;;17.14;68.16;95332.09;5054118;28;20210;-70
2023/08/13 04:13:23;;;;;;;4.20;3.88;;;;;;;17.18;68.14;95338.47;5054013;28;20263;-70
2023/08/13 04:15:55;;;;;;;4.20;3.80;;;;;;;17.21;68.12;95336.88;5054889;28;20208;-67
2023/08/13 04:18:23;;;;;;;4.72;3.80;;;;;;;17.28;68.34;95342.50;5054388;28;20205;-68
2023/08/13 04:20:51;;;;;;;5.00;3.65;;;;;;;17.27;68.28;95344.47;5054083;28;20223;-67
2023/08/13 04:23:19;;;;;;;4.70;4.30;;;;;;;17.27;68.20;95347.28;5053812;28;20251;-69
2023/08/13 04:25:46;;;;;;;3.88;3.58;;;;;;;17.33;68.08;95353.28;5053817;28;20220;-67
2023/08/13 04:28:13;;;;;;;3.67;3.38;;;;;;;17.34;68.31;95352.09;5054956;28;20198;-67
2023/08/13 04:30:41;;;;;;;4.05;3.58;;;;;;;17.39;68.36;95353.72;5053901;28;20214;-67
2023/08/13 04:33:13;;;;;;;4.50;4.13;;;;;;;17.41;68.58;95354.91;5053955;28;20206;-67
2023/08/13 04:35:40;;;;;;;4.13;3.83;;;;;;;17.45;68.42;95354.94;5057731;28;20302;-67
2023/08/13 04:38:09;;;;;;;4.07;3.67;;;;;;;17.52;66.96;95364.13;5074720;28;20186;-68
2023/08/13 04:40:36;;;;;;;4.15;3.83;;;;;;;17.54;67.83;95358.97;5077221;28;20189;-67
2023/08/13 04:43:05;;;;;;;6.18;4.68;;;;;;;17.59;67.31;95366.16;5060985;28;20263;-67
2023/08/13 04:45:33;;;;;;;4.93;3.88;;;;;;;17.62;67.56;95362.59;5077896;28;20216;-67
2023/08/13 04:48:01;;;;;;;5.57;4.22;;;;;;;17.68;67.69;95363.81;5060660;28;20201;-70
2023/08/13 04:50:30;;;;;;;3.83;3.53;;;;;;;17.70;67.40;95367.00;5060679;28;20208;-67
2023/08/13 04:52:59;;;;;;;4.25;3.85;;;;;;;17.73;67.29;95371.81;5078253;28;20193;-67
2023/08/13 04:55:27;;;;;;;4.35;3.95;;;;;;;17.76;66.95;95378.63;5078198;28;20266;-67
2023/08/13 04:57:57;;;;;;;4.30;3.83;;;;;;;17.78;66.38;95374.25;5076919;28;20197;-67
2023/08/13 05:00:24;;;;;;;4.10;3.80;;;;;;;17.81;65.89;95375.47;5077955;28;20177;-67
2023/08/13 05:03:01;;;;;;;4.28;3.97;;;;;;;17.85;65.39;95375.47;5060453;28;20201;-67
2023/08/13 05:05:36;;;;;;;4.10;3.75;;;;;;;17.89;65.97;95374.28;5060648;28;20204;-67
2023/08/13 05:08:04;;;;;;;4.28;3.83;;;;;;;17.91;65.93;95379.50;5078012;28;20184;-67
2023/08/13 05:10:36;;;;;;;4.45;4.05;;;;;;;17.92;65.79;95375.50;5076674;28;20201;-67
2023/08/13 05:13:04;;;;;;;4.18;3.88;;;;;;;17.94;65.84;95376.72;5060427;28;20197;-67
2023/08/13 05:15:30;;;;;;;4.97;3.97;;;;;;;17.97;65.59;95381.53;5060293;28;20235;-67
2023/08/13 05:18:00;;;;;;;3.97;3.67;;;;;;;17.99;65.21;95381.91;5077487;28;20580;-67
2023/08/13 05:20:30;;;;;;;4.05;3.75;;;;;;;18.02;65.80;95374.75;5059884;28;20254;-67
2023/08/13 05:22:59;;;;;;;4.03;3.63;;;;;;;18.06;65.74;95381.13;5078031;28;20263;-67
2023/08/13 05:25:29;;;;;;;4.10;3.70;;;;;;;18.08;65.43;95375.94;5077742;28;20195;-67
2023/08/13 05:27:57;;;;;;;4.13;3.83;;;;;;;18.11;65.23;95382.75;5077464;28;20186;-67
2023/08/13 05:30:26;;;;;;;3.83;3.53;;;;;;;18.16;65.38;95382.38;5074487;28;20227;-67
2023/08/13 05:32:55;;;;;;;4.30;3.90;;;;;;;18.20;65.39;95389.56;5077782;28;20200;-67
2023/08/13 05:35:23;;;;;;;3.83;3.42;;;;;;;18.24;65.23;95384.00;5076152;28;20209;-67
2023/08/13 05:37:59;;;;;;;4.15;3.85;;;;;;;18.25;65.63;95380.78;5059409;28;20201;-67
2023/08/13 05:40:27;;;;;;;4.57;4.18;;;;;;;18.27;65.33;95386.00;5077374;28;20177;-67
2023/08/13 05:42:57;;;;;;;4.20;3.90;;;;;;;18.28;64.89;95385.59;5077090;28;20598;-67
2023/08/13 05:45:30;;;;;;;4.38;4.07;;;;;;;18.29;64.45;95394.75;5076416;28;20209;-67
2023/08/13 05:47:58;;;;;;;3.85;3.55;;;;;;;18.35;64.95;95386.81;5077021;28;20213;-67
2023/08/13 05:50:28;;;;;;;4.38;3.97;;;;;;;18.37;65.21;95384.41;5077000;28;20181;-67
2023/08/13 05:52:56;;;;;;;4.25;3.88;;;;;;;18.40;64.67;95384.41;5076579;28;20260;-67
2023/08/13 05:55:24;;;;;;;3.88;3.58;;;;;;;18.47;64.80;95390.00;5077089;28;20250;-67
2023/08/13 05:57:52;;;;;;;4.47;4.18;;;;;;;18.49;64.47;95387.63;5059143;28;20625;-67
2023/08/13 06:00:20;;;;;;;4.45;4.15;;;;;;;18.50;64.40;95386.44;5059930;28;20193;-67
2023/08/13 06:02:49;;;;;;;4.35;3.95;;;;;;;18.58;64.40;95390.03;5059581;28;20250;-67
2023/08/13 06:05:17;;;;;;;4.68;3.70;;;;;;;18.65;64.67;95392.03;5076948;28;20178;-67
2023/08/13 06:07:48;;;;;;;4.25;3.88;;;;;;;18.74;64.01;95389.69;5059198;28;20204;-67
2023/08/13 06:10:21;;;;;;;4.70;4.40;;;;;;;18.81;63.71;95400.88;5059257;28;20223;-67
2023/08/13 06:12:49;;;;;;;4.97;4.57;;;;;;;18.82;63.28;95390.50;5076202;28;20220;-67
2023/08/13 06:15:18;;;;;;;4.65;4.25;;;;;;;18.83;63.02;95389.28;5076750;28;20189;-67
2023/08/13 06:17:49;;;;;;;4.60;4.20;;;;;;;18.85;62.58;95390.50;5076395;28;20178;-67
2023/08/13 06:20:21;;;;;;;5.18;4.68;;;;;;;18.90;63.20;95386.50;5076817;28;20185;-67
2023/08/13 06:22:52;;;;;;;4.20;3.90;;;;;;;18.94;62.93;95392.88;5076589;28;20182;-67
2023/08/13 06:25:24;;;;;;;4.38;4.05;;;;;;;18.95;62.92;95391.69;5059144;28;20244;-67
2023/08/13 06:27:54;;;;;;;5.10;4.70;;;;;;;18.95;63.39;95389.72;5076400;28;20193;-67
2023/08/13 06:30:25;;;;;;;4.65;4.30;;;;;;;18.97;62.37;95389.28;5058860;28;20201;-67
2023/08/13 06:32:51;;;;;;;5.90;4.55;;;;;;;19.03;62.43;95393.28;5058828;28;20308;-67
2023/08/13 06:35:18;;;;;;;4.45;4.05;;;;;;;19.09;62.45;95397.25;5076213;28;20214;-67
2023/08/13 06:37:46;;;;;;;4.78;4.38;;;;;;;19.14;62.22;95391.28;5055434;28;20605;-67
2023/08/13 06:40:14;;;;;;;4.90;4.50;;;;;;;19.17;61.79;95392.47;5056206;28;20190;-67
2023/08/13 06:42:43;;;;;;;4.53;4.20;;;;;;;19.21;61.51;95390.50;5056357;28;20186;-67
2023/08/13 06:45:12;;;;;;;4.20;3.90;;;;;;;19.28;61.46;95392.44;5038581;28;20210;-67
2023/08/13 06:47:40;;;;;;;5.28;4.78;;;;;;;19.34;61.52;95393.66;5038652;28;20622;-67
2023/08/13 06:50:09;;;;;;;6.00;5.43;;;;;;;19.37;61.11;95392.84;5039260;28;20206;-67
2023/08/13 06:52:37;;;;;;;12.07;10.98;;;;;;;19.40;61.07;95381.66;5055739;28;20233;-68
2023/08/13 06:55:07;;;;;;;7.88;6.78;;;;;;;19.46;60.87;95382.03;5038446;28;20538;-67
2023/08/13 06:57:34;;;;;;;8.00;6.32;;;;;;;19.48;61.33;95382.44;5055875;28;20271;-67
2023/08/13 07:00:10;;;;;;;7.40;6.80;;;;;;;19.48;60.35;95383.22;5055791;28;20178;-67
2023/08/13 07:02:38;;;;;;;6.90;6.30;;;;;;;19.51;60.17;95381.63;5055200;28;20197;-67
2023/08/13 07:05:08;;;;;;;6.90;6.20;;;;;;;19.55;59.91;95388.03;5055208;28;20661;-67
2023/08/13 07:07:38;;;;;;;6.30;5.28;;;;;;;19.58;59.77;95381.63;5038173;28;20202;-67
2023/08/13 07:10:05;;;;;;;9.02;5.03;;;;;;;19.70;60.19;95383.22;5038005;28;20201;-67
2023/08/13 07:12:33;;;;;;;7.28;5.13;;;;;;;19.87;60.32;95370.38;5055200;28;20645;-67
2023/08/13 07:15:03;;;;;;;6.60;5.30;;;;;;;20.05;59.93;95373.88;5055534;28;20605;-69
2023/08/13 07:17:31;;;;;;;5.47;4.88;;;;;;;20.11;59.18;95371.44;5055681;28;20190;-68
2023/08/13 07:20:04;;;;;;;5.15;4.65;;;;;;;20.31;58.85;95363.34;5021771;28;20205;-71
2023/08/13 07:22:35;;;;;;;6.40;4.88;;;;;;;20.52;58.11;95362.47;5038099;28;20251;-67
2023/08/13 07:25:05;;;;;;;5.13;4.65;;;;;;;20.55;57.82;95365.25;5055497;28;20193;-69
2023/08/13 07:27:36;;;;;;;8.05;4.82;;;;;;;20.65;57.11;95366.34;5055314;28;20240;-68
2023/08/13 07:30:08;;;;;;;4.75;4.35;;;;;;;20.72;56.93;95368.31;5055400;28;20233;-67
2023/08/13 07:32:36;;;;;;;6.00;4.55;;;;;;;20.68;56.07;95359.94;5037866;28;20308;-67
2023/08/13 07:35:06;;;;;;;6.50;4.50;;;;;;;20.74;57.02;95365.91;5037762;28;20197;-67
2023/08/13 07:37:33;;;;;;;4.57;4.05;;;;;;;20.84;56.25;95360.22;5073670;28;20237;-67
2023/08/13 07:40:01;;;;;;;5.07;4.35;;;;;;;20.91;56.54;95362.97;5057690;28;20205;-69
2023/08/13 07:42:29;;;;;;;5.22;4.07;;;;;;;21.05;55.87;95353.63;5057571;28;20193;-66
2023/08/13 07:44:58;;;;;;;4.40;4.00;;;;;;;21.22;55.29;95360.28;5075253;28;20186;-66
2023/08/13 07:47:28;;;;;;;6.30;4.50;;;;;;;21.33;53.85;95358.22;5073958;28;20585;-67
2023/08/13 07:49:58;;;;;;;4.30;3.90;;;;;;;21.37;54.08;95346.94;5075082;28;20185;-66
2023/08/13 07:52:29;;;;;;;4.43;4.03;;;;;;;21.45;53.91;95353.28;5075002;28;20200;-67
2023/08/13 07:54:57;;;;;;;4.65;4.20;;;;;;;21.56;53.16;95351.16;5041007;28;20216;-67
2023/08/13 07:57:24;;;;;;;5.00;4.50;;;;;;;21.67;52.88;95353.84;5057374;28;20204;-67
2023/08/13 07:59:54;;;;;;;4.72;4.28;;;;;;;21.78;52.24;95340.47;5057470;28;20203;-67
2023/08/13 08:02:24;;;;;;;4.70;3.95;;;;;;;21.81;50.69;95340.44;5075116;28;20188;-67
2023/08/13 08:04:57;;;;;;;6.00;4.10;;;;;;;21.82;51.65;95344.84;5057516;28;20235;-67
2023/08/13 08:07:28;;;;;;;4.90;4.50;;;;;;;21.88;51.79;95343.16;5057227;28;20254;-67
2023/08/13 08:10:02;;;;;;;4.97;4.47;;;;;;;21.95;50.77;95341.47;5073783;28;20197;-67
2023/08/13 08:12:30;;;;;;;4.30;3.90;;;;;;;22.01;50.74;95334.19;5075087;28;20236;-67
2023/08/13 08:14:59;;;;;;;4.38;4.07;;;;;;;22.09;50.09;95332.88;5076420;28;20643;-67
2023/08/13 08:17:28;;;;;;;4.75;4.30;;;;;;;22.17;49.91;95334.41;5061165;28;20239;-67
2023/08/13 08:20:02;;;;;;;4.40;4.00;;;;;;;22.18;50.51;95327.56;5077908;28;20197;-67
2023/08/13 08:22:33;;;;;;;4.47;3.97;;;;;;;22.22;50.27;95327.50;5079018;28;20196;-68
2023/08/13 08:25:09;;;;;;;7.63;6.35;;;;;;;22.30;50.83;95317.78;5061251;28;20196;-67
2023/08/13 08:27:35;;;;;;;4.15;3.75;;;;;;;22.39;50.13;95323.66;5061220;28;20224;-67
2023/08/13 08:30:04;;;;;;;4.68;4.10;;;;;;;22.44;49.35;95313.94;5078830;28;20181;-67
2023/08/13 08:32:32;;;;;;;4.43;3.83;;;;;;;22.51;48.28;95316.66;5061091;28;20232;-68
2023/08/13 08:35:00;;;;;;;4.00;3.70;;;;;;;22.52;48.09;95313.44;5078279;28;20216;-67
2023/08/13 08:37:27;;;;;;;5.03;4.63;;;;;;;22.57;47.99;95303.72;5057375;28;20237;-67
2023/08/13 08:39:55;;;;;;;4.78;4.15;;;;;;;22.69;47.57;95308.72;5057243;28;20194;-67
2023/08/13 08:42:23;;;;;;;7.95;7.18;;;;;;;22.80;47.57;95294.50;5058657;28;20193;-68
2023/08/13 08:44:52;;;;;;;4.72;4.32;;;;;;;22.88;48.17;95303.63;5058008;28;20194;-68
2023/08/13 08:47:25;;;;;;;4.28;3.97;;;;;;;22.95;47.11;95298.72;5057488;28;20225;-67
2023/08/13 08:49:55;;;;;;;4.63;4.22;;;;;;;23.02;46.70;95297.78;5058252;28;20225;-67
2023/08/13 08:52:24;;;;;;;4.13;3.72;;;;;;;23.12;46.72;95302.41;5057002;28;20210;-67
2023/08/13 08:54:53;;;;;;;4.55;3.70;;;;;;;23.18;46.75;95302.75;5057444;28;20216;-67
2023/08/13 08:57:21;;;;;;;4.85;3.67;;;;;;;23.22;45.97;95292.22;5058181;28;20201;-67
2023/08/13 08:59:49;;;;;;;4.07;3.70;;;;;;;23.27;46.29;95291.69;5057173;28;20208;-68
2023/08/13 09:02:17;;;;;;;4.13;3.72;;;;;;;23.35;45.88;95292.34;5057355;28;20198;-67
2023/08/13 09:04:45;;;;;;;4.03;3.55;;;;;;;23.44;45.01;95299.03;5057748;28;20182;-67
2023/08/13 09:07:14;;;;;;;4.05;3.65;;;;;;;23.61;45.78;95285.03;5056832;28;20213;-67
2023/08/13 09:09:46;;;;;;;3.60;3.30;;;;;;;23.72;45.54;95288.47;5057957;28;20194;-67
2023/08/13 09:12:14;;;;;;;4.10;3.80;;;;;;;23.71;43.71;95287.69;5057788;28;20295;-67
2023/08/13 09:14:45;;;;;;;3.80;3.50;;;;;;;23.76;44.00;95278.72;5057938;28;20194;-67
2023/08/13 09:17:12;;;;;;;4.20;3.80;;;;;;;23.82;43.11;95279.00;5057107;28;20205;-67
2023/08/13 09:19:40;;;;;;;4.10;3.72;;;;;;;23.98;42.56;95270.59;5057731;28;20202;-67
2023/08/13 09:22:11;;;;;;;3.70;3.40;;;;;;;24.12;41.92;95269.50;5057917;28;20185;-67
2023/08/13 09:24:41;;;;;;;6.35;3.85;;;;;;;24.20;42.99;95278.59;5039964;28;20237;-67
2023/08/13 09:27:15;;;;;;;3.95;3.60;;;;;;;24.14;42.90;95272.66;5055748;28;20292;-67
2023/08/13 09:29:43;;;;;;;3.88;3.58;;;;;;;24.22;43.27;95271.28;5056552;28;20198;-67
2023/08/13 09:32:14;;;;;;;3.90;3.58;;;;;;;24.38;42.84;95269.72;5057193;28;20217;-67
2023/08/13 09:34:45;;;;;;;4.10;3.70;;;;;;;24.45;43.10;95273.19;5057137;28;20275;-67
2023/08/13 09:37:14;;;;;;;3.72;3.42;;;;;;;24.55;42.68;95273.38;5056387;28;20268;-67
2023/08/13 09:39:41;;;;;;;3.90;3.58;;;;;;;24.57;42.60;95274.53;5057020;28;20617;-67
2023/08/13 09:42:11;;;;;;;4.03;3.72;;;;;;;24.52;42.04;95268.63;5057498;28;20247;-67
2023/08/13 09:44:41;;;;;;;6.65;3.40;;;;;;;24.56;41.76;95272.16;5057405;28;20185;-67
2023/08/13 09:47:10;;;;;;;3.90;3.58;;;;;;;24.55;41.94;95277.00;5056369;28;20618;-72
2023/08/13 09:49:40;;;;;;;4.32;3.72;;;;;;;24.50;41.61;95269.84;5056224;28;20197;-70
2023/08/13 09:52:09;;;;;;;4.20;3.80;;;;;;;24.51;41.81;95273.47;5057061;28;20667;-71
2023/08/13 09:54:43;;;;;;;4.00;3.70;;;;;;;24.47;42.10;95278.38;5056196;28;20194;-71
2023/08/13 09:57:15;;;;;;;3.70;3.40;;;;;;;24.39;42.24;95277.75;5057064;28;20209;-71
2023/08/13 09:59:44;;;;;;;4.07;3.67;;;;;;;24.44;41.22;95277.25;5055954;28;20564;-71
2023/08/13 10:02:14;;;;;;;4.32;3.60;;;;;;;24.52;42.29;95271.47;5056981;28;20202;-68
2023/08/13 10:04:45;;;;;;;4.05;3.65;;;;;;;24.64;43.47;95271.53;5056180;28;20216;-68
2023/08/13 10:07:14;;;;;;;4.13;3.72;;;;;;;24.73;42.17;95265.31;5056222;28;20194;-67
2023/08/13 10:09:41;;;;;;;4.32;3.92;;;;;;;24.72;41.30;95264.47;5056781;28;20208;-67
2023/08/13 10:12:10;;;;;;;4.00;3.63;;;;;;;24.78;41.75;95267.56;5056137;28;20197;-68
2023/08/13 10:14:43;;;;;;;4.55;3.80;;;;;;;24.80;41.50;95261.47;5072387;28;20194;-68
2023/08/13 10:17:22;;;;;;;4.03;3.72;;;;;;;24.70;41.93;95274.63;5055996;28;20206;-68
2023/08/13 10:19:51;;;;;;;4.00;3.70;;;;;;;24.59;42.46;95265.66;5072453;28;20292;-68
2023/08/13 10:22:24;;;;;;;3.80;3.50;;;;;;;24.50;42.96;95260.59;5056244;28;20206;-68
2023/08/13 10:24:56;;;;;;;4.28;3.72;;;;;;;24.42;42.95;95268.44;5056819;28;20252;-71
2023/08/13 10:27:24;;;;;;;4.88;3.72;;;;;;;24.40;43.31;95261.63;5055755;28;20276;-68
2023/08/13 10:30:07;;;;;;;4.43;4.13;;;;;;;24.58;44.10;95267.66;5056500;28;20190;-68
2023/08/13 10:32:39;;;;;;;3.95;3.65;;;;;;;24.99;43.19;95246.50;5055641;28;20221;-68
2023/08/13 10:35:22;;;;;;;4.00;3.60;;;;;;;25.05;42.95;95247.53;5055566;28;20193;-68
2023/08/13 10:37:54;;;;;;;4.25;3.40;;;;;;;24.88;42.91;95248.81;5056106;28;20252;-68
2023/08/13 10:40:22;;;;;;;3.95;3.63;;;;;;;24.69;41.58;95259.75;5055328;28;20225;-69
2023/08/13 10:42:52;;;;;;;3.60;3.40;;;;;;;24.54;42.05;95260.50;5072375;28;20255;-69
2023/08/13 10:45:24;;;;;;;3.65;3.28;;;;;;;24.43;41.98;95263.59;5055185;28;20222;-71
2023/08/13 10:48:00;;;;;;;4.18;3.80;;;;;;;24.33;42.73;95256.13;5055745;28;20625;-71
2023/08/13 10:50:30;;;;;;;4.50;4.10;;;;;;;24.23;42.72;95250.31;5055337;28;20201;-71
2023/08/13 10:53:04;;;;;;;4.28;3.92;;;;;;;24.15;42.99;95256.56;5053330;28;20226;-76
2023/08/13 10:55:34;;;;;;;4.80;3.90;;;;;;;24.10;42.81;95259.88;5055146;28;20198;-70
2023/08/13 10:58:02;;;;;;;4.13;3.72;;;;;;;24.07;43.47;95255.13;5054985;28;20182;-71
2023/08/13 11:00:31;;;;;;;7.10;4.35;;;;;;;24.07;43.47;95246.66;5055884;28;20198;-70
2023/08/13 11:03:04;;;;;;;5.80;4.45;;;;;;;24.03;43.29;95241.13;5055511;28;20198;-71
2023/08/13 11:05:34;;;;;;;4.32;3.90;;;;;;;24.00;43.80;95236.34;5055418;28;20194;-71
2023/08/13 11:08:02;;;;;;;4.20;3.63;;;;;;;24.00;43.50;95245.63;5054612;28;20202;-73
2023/08/13 11:10:31;;;;;;;5.65;4.20;;;;;;;24.00;42.88;95242.81;5055835;28;20186;-71
2023/08/13 11:13:02;;;;;;;3.70;3.50;;;;;;;24.05;42.98;95235.06;5054617;28;20213;-72
2023/08/13 11:15:34;;;;;;;3.85;3.55;;;;;;;24.10;42.86;95242.97;5054926;28;20247;-69
2023/08/13 11:18:03;;;;;;;4.45;4.15;;;;;;;24.15;43.27;95234.81;5054614;28;20198;-69
2023/08/13 11:20:29;;;;;;;4.53;4.13;;;;;;;24.30;43.29;95229.66;5054574;28;20236;-69
2023/08/13 11:23:00;;;;;;;4.40;4.10;;;;;;;24.50;42.10;95226.78;5055529;28;20263;-69
2023/08/13 11:25:28;;;;;;;3.95;3.60;;;;;;;24.70;42.38;95226.69;5055313;28;20202;-69
2023/08/13 11:27:59;;;;;;;4.20;3.80;;;;;;;24.69;41.72;95236.38;5054534;28;20201;-69
2023/08/13 11:30:30;;;;;;;3.92;3.72;;;;;;;24.63;41.82;95224.84;5055727;28;20194;-69
2023/08/13 11:33:01;;;;;;;4.25;3.95;;;;;;;24.59;41.96;95229.00;5054756;28;20654;-69
2023/08/13 11:35:31;;;;;;;4.45;4.05;;;;;;;24.72;42.50;95221.38;5055906;28;20202;-71
2023/08/13 11:37:59;;;;;;;4.75;4.25;;;;;;;24.89;41.79;95217.31;5057755;28;20189;-71
2023/08/13 11:40:27;;;;;;;4.82;4.32;;;;;;;25.11;42.06;95220.41;5058027;28;20193;-71
2023/08/13 11:42:57;;;;;;;5.00;4.60;;;;;;;25.36;41.57;95222.53;5075310;28;20246;-72